Time;durP1;ratioP1;P1;durP2;ratioP2;P2;SDS_P1;SDS_P2;PMS_P1;PMS_P2;Temp;Humidity;BMP_temperature;BMP_pressure;BME280_temperature;BME280_humidity;BME280_pressure;Samples;Min_cycle;Max_cycle;Signal;HPM_P1;HPM_P2
2024/01/29 00:02:10;;;;;;;2.42;2.20;;;;;;;;;;5025128;28;20103;-69
2024/01/29 00:04:36;;;;;;;4.13;2.13;;;;;;;;;;5024413;28;20050;-70
2024/01/29 00:07:02;;;;;;;2.88;1.70;;;;;;;;;;5020379;28;20053;-67
2024/01/29 00:09:28;;;;;;;1.67;1.58;;;;;;;;;;5026090;28;20116;-66
2024/01/29 00:11:54;;;;;;;2.08;1.50;;;;;;;;;;5011250;28;20140;-68
2024/01/29 00:14:20;;;;;;;2.88;1.70;;;;;;;;;;5027882;28;20099;-67
2024/01/29 00:16:47;;;;;;;1.92;1.55;;;;;;;;;;5020790;28;20488;-67
2024/01/29 00:19:13;;;;;;;2.22;1.80;;;;;;;;;;5021990;28;20053;-67
2024/01/29 00:21:39;;;;;;;2.33;1.90;;;;;;;;;;5027502;28;20408;-67
2024/01/29 00:24:05;;;;;;;2.80;2.35;;;;;;;;;;5022461;28;20471;-67
2024/01/29 00:26:31;;;;;;;3.35;2.58;;;;;;;;;;5016657;28;20469;-67
2024/01/29 00:28:57;;;;;;;3.20;2.17;;;;;;;;;;5027052;28;20129;-67
2024/01/29 00:31:24;;;;;;;1.92;1.83;;;;;;;;;;5025392;28;20045;-67
2024/01/29 00:33:51;;;;;;;3.15;2.10;;;;;;;;;;5027716;28;20049;-67
2024/01/29 00:36:17;;;;;;;2.78;2.15;;;;;;;;;;5015534;28;20401;-67
2024/01/29 00:38:43;;;;;;;2.35;1.88;;;;;;;;;;5014598;28;20050;-67
2024/01/29 00:41:09;;;;;;;1.40;1.30;;;;;;;;;;5014904;28;20164;-67
2024/01/29 00:43:34;;;;;;;2.83;1.67;;;;;;;;;;5016296;28;20049;-67
2024/01/29 00:46:01;;;;;;;1.65;1.55;;;;;;;;;;5017377;28;20064;-67
2024/01/29 00:48:27;;;;;;;1.25;1.15;;;;;;;;;;5015019;28;20172;-66
2024/01/29 00:50:53;;;;;;;1.98;1.23;;;;;;;;;;5014323;28;20132;-67
2024/01/29 00:53:19;;;;;;;1.30;1.20;;;;;;;;;;5015253;28;20544;-67
2024/01/29 00:55:47;;;;;;;2.08;1.80;;;;;;;;;;5017356;28;20540;-67
2024/01/29 00:58:14;;;;;;;1.50;1.40;;;;;;;;;;5017801;28;20419;-67
2024/01/29 01:00:41;;;;;;;1.95;1.77;;;;;;;;;;5013615;28;20046;-67
2024/01/29 01:03:08;;;;;;;2.10;1.65;;;;;;;;;;5015736;28;20052;-67
2024/01/29 01:05:34;;;;;;;1.77;1.67;;;;;;;;;;5015193;28;20104;-67
2024/01/29 01:08:01;;;;;;;3.10;1.60;;;;;;;;;;5017763;28;20069;-67
2024/01/29 01:10:27;;;;;;;3.10;1.83;;;;;;;;;;5018578;28;20057;-67
2024/01/29 01:12:53;;;;;;;1.90;1.70;;;;;;;;;;5015937;28;20034;-67
2024/01/29 01:15:19;;;;;;;1.48;1.38;;;;;;;;;;5013289;28;20074;-67
2024/01/29 01:17:49;;;;;;;1.83;1.70;;;;;;;;;;5016974;28;20522;-67
2024/01/29 01:20:15;;;;;;;2.40;1.60;;;;;;;;;;5018076;28;20045;-67
2024/01/29 01:22:41;;;;;;;2.40;1.60;;;;;;;;;;5017425;28;20064;-67
2024/01/29 01:25:07;;;;;;;1.23;1.13;;;;;;;;;;5014633;28;20165;-67
2024/01/29 01:27:33;;;;;;;0.95;0.93;;;;;;;;;;5014829;28;20053;-67
2024/01/29 01:29:59;;;;;;;1.02;1.02;;;;;;;;;;5014229;28;20077;-68
2024/01/29 01:32:26;;;;;;;0.93;0.90;;;;;;;;;;5016285;28;20046;-67
2024/01/29 01:34:52;;;;;;;1.42;0.93;;;;;;;;;;5016526;28;20049;-67
2024/01/29 01:37:18;;;;;;;0.85;0.85;;;;;;;;;;5013442;28;20052;-67
2024/01/29 01:39:44;;;;;;;2.15;0.82;;;;;;;;;;5014686;28;20621;-67
2024/01/29 01:42:10;;;;;;;1.40;1.10;;;;;;;;;;5013653;28;20050;-67
2024/01/29 01:44:36;;;;;;;0.90;0.82;;;;;;;;;;5016470;28;20539;-67
2024/01/29 01:47:02;;;;;;;1.40;1.00;;;;;;;;;;5017521;28;20530;-67
2024/01/29 01:49:28;;;;;;;2.65;1.92;;;;;;;;;;5014453;28;20045;-67
2024/01/29 01:51:54;;;;;;;1.45;1.35;;;;;;;;;;5013641;28;20057;-67
2024/01/29 01:54:21;;;;;;;2.13;1.42;;;;;;;;;;5015961;28;20532;-67
2024/01/29 01:56:48;;;;;;;1.50;1.40;;;;;;;;;;5017416;28;20124;-66
2024/01/29 01:59:14;;;;;;;2.15;1.77;;;;;;;;;;5017480;28;20049;-67
2024/01/29 02:01:40;;;;;;;1.60;1.48;;;;;;;;;;5014888;28;20492;-68
2024/01/29 02:04:06;;;;;;;1.90;1.50;;;;;;;;;;5017673;28;20105;-67
2024/01/29 02:06:32;;;;;;;1.52;1.10;;;;;;;;;;5012425;28;20049;-67
2024/01/29 02:08:59;;;;;;;2.08;1.20;;;;;;;;;;5016160;28;20049;-67
2024/01/29 02:11:25;;;;;;;1.27;1.17;;;;;;;;;;5015485;28;20053;-68
2024/01/29 02:13:51;;;;;;;1.88;1.70;;;;;;;;;;5013972;28;20053;-67
2024/01/29 02:16:17;;;;;;;1.58;1.48;;;;;;;;;;5012606;28;20298;-67
2024/01/29 02:18:43;;;;;;;2.08;1.20;;;;;;;;;;5011968;28;20397;-67
2024/01/29 02:21:09;;;;;;;1.00;0.90;;;;;;;;;;5015988;28;20060;-67
2024/01/29 02:23:35;;;;;;;1.80;1.13;;;;;;;;;;5015614;28;20057;-67
2024/01/29 02:26:01;;;;;;;1.23;1.10;;;;;;;;;;5012196;28;20546;-66
2024/01/29 02:28:27;;;;;;;1.63;1.35;;;;;;;;;;5013775;28;20121;-67
2024/01/29 02:30:54;;;;;;;1.15;1.00;;;;;;;;;;5013577;28;20052;-67
2024/01/29 02:33:20;;;;;;;1.60;1.50;;;;;;;;;;5016244;28;20091;-67
2024/01/29 02:35:46;;;;;;;2.47;1.48;;;;;;;;;;5015317;28;20064;-67
2024/01/29 02:38:12;;;;;;;1.70;1.58;;;;;;;;;;5013917;28;20051;-66
2024/01/29 02:40:38;;;;;;;1.20;1.10;;;;;;;;;;5012495;28;20045;-66
2024/01/29 02:43:04;;;;;;;1.33;1.08;;;;;;;;;;5012491;28;20096;-67
2024/01/29 02:45:30;;;;;;;1.02;0.93;;;;;;;;;;5015890;28;20099;-67
2024/01/29 02:47:56;;;;;;;0.73;0.70;;;;;;;;;;5015247;28;20808;-67
2024/01/29 02:50:22;;;;;;;1.75;1.10;;;;;;;;;;5015151;28;20355;-67
2024/01/29 02:52:49;;;;;;;1.20;1.10;;;;;;;;;;5011379;28;20096;-67
2024/01/29 02:55:15;;;;;;;0.70;0.70;;;;;;;;;;5012541;28;20272;-66
2024/01/29 02:57:41;;;;;;;0.98;0.90;;;;;;;;;;5016603;28;20503;-67
2024/01/29 03:00:07;;;;;;;1.88;1.00;;;;;;;;;;5015964;28;20132;-67
2024/01/29 03:02:33;;;;;;;0.70;0.70;;;;;;;;;;5014631;28;20044;-66
2024/01/29 03:04:59;;;;;;;1.38;1.00;;;;;;;;;;5011860;28;20045;-67
2024/01/29 03:07:25;;;;;;;1.33;1.23;;;;;;;;;;5011379;28;20657;-67
2024/01/29 03:09:51;;;;;;;1.15;1.00;;;;;;;;;;5015722;28;20124;-66
2024/01/29 03:12:17;;;;;;;2.97;1.63;;;;;;;;;;5015020;28;20515;-67
2024/01/29 03:14:43;;;;;;;2.33;1.70;;;;;;;;;;5014039;28;20095;-66
2024/01/29 03:17:09;;;;;;;1.42;1.33;;;;;;;;;;5013160;28;20068;-67
2024/01/29 03:19:35;;;;;;;2.33;1.90;;;;;;;;;;5011862;28;20080;-67
2024/01/29 03:22:01;;;;;;;2.72;1.65;;;;;;;;;;5015274;28;20144;-67
2024/01/29 03:24:27;;;;;;;2.30;1.90;;;;;;;;;;5014571;28;20057;-67
2024/01/29 03:26:53;;;;;;;4.65;2.40;;;;;;;;;;5013787;28;20057;-66
2024/01/29 03:29:19;;;;;;;2.15;1.95;;;;;;;;;;5012935;28;20109;-67
2024/01/29 03:31:45;;;;;;;1.90;1.55;;;;;;;;;;5014250;28;20457;-67
2024/01/29 03:34:11;;;;;;;1.85;1.50;;;;;;;;;;5018828;28;20053;-67
2024/01/29 03:36:37;;;;;;;1.50;1.35;;;;;;;;;;5019524;28;20042;-66
2024/01/29 03:39:03;;;;;;;1.92;1.40;;;;;;;;;;5017728;28;20077;-67
2024/01/29 03:41:29;;;;;;;1.50;1.40;;;;;;;;;;5015118;28;20096;-67
2024/01/29 03:43:55;;;;;;;2.10;1.35;;;;;;;;;;5016221;28;20219;-66
2024/01/29 03:46:21;;;;;;;1.05;1.00;;;;;;;;;;5018166;28;20488;-66
2024/01/29 03:48:47;;;;;;;1.65;1.35;;;;;;;;;;5019340;28;20539;-67
2024/01/29 03:51:13;;;;;;;1.00;0.90;;;;;;;;;;5017677;28;20420;-66
2024/01/29 03:53:39;;;;;;;1.65;1.55;;;;;;;;;;5016700;28;20058;-66
2024/01/29 03:56:05;;;;;;;1.40;1.30;;;;;;;;;;5016134;28;20054;-67
2024/01/29 03:58:32;;;;;;;1.70;1.60;;;;;;;;;;5017004;28;20050;-67
2024/01/29 04:00:58;;;;;;;1.90;1.30;;;;;;;;;;5018073;28;20125;-67
2024/01/29 04:03:24;;;;;;;1.70;1.60;;;;;;;;;;5019063;28;20132;-67
2024/01/29 04:05:50;;;;;;;1.38;1.25;;;;;;;;;;5016124;28;20042;-67
2024/01/29 04:08:15;;;;;;;2.28;1.58;;;;;;;;;;5016778;28;20485;-66
2024/01/29 04:10:41;;;;;;;1.98;1.77;;;;;;;;;;5016375;28;20129;-66
2024/01/29 04:13:07;;;;;;;1.25;1.15;;;;;;;;;;5018015;28;20049;-67
2024/01/29 04:15:33;;;;;;;1.50;1.38;;;;;;;;;;5017789;28;20038;-66
2024/01/29 04:17:59;;;;;;;1.42;1.33;;;;;;;;;;5014288;28;20053;-67
2024/01/29 04:20:25;;;;;;;1.30;1.20;;;;;;;;;;5016811;28;20095;-66
2024/01/29 04:22:51;;;;;;;2.20;1.38;;;;;;;;;;5017465;28;20454;-66
2024/01/29 04:25:17;;;;;;;1.33;1.10;;;;;;;;;;5016272;28;20058;-67
2024/01/29 04:27:43;;;;;;;1.33;1.23;;;;;;;;;;5017027;28;20096;-67
2024/01/29 04:30:10;;;;;;;1.33;1.23;;;;;;;;;;5019249;28;20077;-67
2024/01/29 04:32:36;;;;;;;1.60;1.50;;;;;;;;;;5016137;28;20100;-67
2024/01/29 04:35:02;;;;;;;1.67;1.48;;;;;;;;;;5015043;28;20057;-67
2024/01/29 04:37:28;;;;;;;1.92;1.40;;;;;;;;;;5014543;28;20053;-67
2024/01/29 04:39:54;;;;;;;2.30;1.60;;;;;;;;;;5016200;28;20056;-67
2024/01/29 04:42:20;;;;;;;2.10;1.90;;;;;;;;;;5018227;28;20060;-67
2024/01/29 04:44:46;;;;;;;3.28;1.75;;;;;;;;;;5016778;28;20195;-67
2024/01/29 04:47:12;;;;;;;1.73;1.63;;;;;;;;;;5014320;28;20471;-66
2024/01/29 04:49:38;;;;;;;1.65;1.55;;;;;;;;;;5015527;28;20048;-67
2024/01/29 04:52:04;;;;;;;1.98;1.52;;;;;;;;;;5015504;28;20136;-67
2024/01/29 04:54:30;;;;;;;2.83;2.10;;;;;;;;;;5018316;28;20040;-66
2024/01/29 04:56:56;;;;;;;1.88;1.58;;;;;;;;;;5018776;28;20049;-67
2024/01/29 04:59:22;;;;;;;1.60;1.50;;;;;;;;;;5015439;28;20845;-67
2024/01/29 05:01:48;;;;;;;1.85;1.50;;;;;;;;;;5014009;28;20413;-67
2024/01/29 05:04:14;;;;;;;1.80;1.60;;;;;;;;;;5017370;28;20143;-67
2024/01/29 05:06:40;;;;;;;2.97;1.92;;;;;;;;;;5018012;28;20048;-67
2024/01/29 05:09:09;;;;;;;2.35;1.90;;;;;;;;;;5018274;28;20057;-67
2024/01/29 05:11:37;;;;;;;3.05;2.33;;;;;;;;;;5017527;28;20463;-67
2024/01/29 05:14:03;;;;;;;2.88;2.53;;;;;;;;;;5025764;28;20084;-66
2024/01/29 05:16:29;;;;;;;2.40;2.08;;;;;;;;;;5026354;28;20086;-67
2024/01/29 05:18:55;;;;;;;3.25;2.58;;;;;;;;;;5017178;28;20061;-67
2024/01/29 05:21:21;;;;;;;2.90;2.22;;;;;;;;;;5024328;28;20049;-67
2024/01/29 05:23:47;;;;;;;2.58;1.80;;;;;;;;;;5013885;28;20509;-67
2024/01/29 05:26:13;;;;;;;3.05;2.50;;;;;;;;;;5014862;28;20060;-66
2024/01/29 05:28:39;;;;;;;4.65;2.95;;;;;;;;;;5015988;28;20048;-67
2024/01/29 05:31:05;;;;;;;3.20;2.85;;;;;;;;;;5016752;28;20045;-67
2024/01/29 05:33:31;;;;;;;3.08;2.38;;;;;;;;;;5016238;28;20091;-67
2024/01/29 05:35:57;;;;;;;3.33;2.67;;;;;;;;;;5014746;28;20038;-67
2024/01/29 05:38:24;;;;;;;3.03;2.70;;;;;;;;;;5015025;28;20129;-67
2024/01/29 05:40:50;;;;;;;2.60;2.40;;;;;;;;;;5014438;28;20046;-68
2024/01/29 05:43:16;;;;;;;3.92;2.50;;;;;;;;;;5018044;28;20395;-67
2024/01/29 05:45:42;;;;;;;3.38;2.70;;;;;;;;;;5016693;28;20049;-67
2024/01/29 05:48:08;;;;;;;4.03;2.92;;;;;;;;;;5012598;28;20519;-67
2024/01/29 05:50:34;;;;;;;4.13;3.13;;;;;;;;;;5014452;28;20619;-67
2024/01/29 05:53:00;;;;;;;3.35;2.83;;;;;;;;;;5013624;28;20069;-67
2024/01/29 05:55:26;;;;;;;3.58;3.10;;;;;;;;;;5015823;28;20053;-67
2024/01/29 05:57:52;;;;;;;3.10;2.60;;;;;;;;;;5017354;28;20095;-67
2024/01/29 06:00:18;;;;;;;6.25;3.38;;;;;;;;;;5015908;28;20139;-67
2024/01/29 06:02:46;;;;;;;3.58;3.00;;;;;;;;;;5023127;28;20736;-67
2024/01/29 06:05:12;;;;;;;3.80;2.90;;;;;;;;;;5023038;28;20045;-66
2024/01/29 06:07:38;;;;;;;6.47;3.78;;;;;;;;;;5022944;28;20048;-67
2024/01/29 06:10:05;;;;;;;3.42;3.13;;;;;;;;;;5023103;28;20171;-66
2024/01/29 06:12:31;;;;;;;4.05;3.10;;;;;;;;;;5012856;28;20137;-68
2024/01/29 06:14:57;;;;;;;3.00;2.70;;;;;;;;;;5014352;28;20191;-67
2024/01/29 06:17:23;;;;;;;3.70;3.38;;;;;;;;;;5012891;28;20053;-67
2024/01/29 06:19:49;;;;;;;4.15;3.58;;;;;;;;;;5015487;28;20049;-67
2024/01/29 06:22:15;;;;;;;6.20;3.70;;;;;;;;;;5015720;28;20053;-67
2024/01/29 06:24:41;;;;;;;4.35;3.95;;;;;;;;;;5013391;28;20372;-67
2024/01/29 06:27:07;;;;;;;4.10;3.58;;;;;;;;;;5012443;28;20666;-67
2024/01/29 06:29:33;;;;;;;4.85;3.53;;;;;;;;;;5014734;28;20448;-66
2024/01/29 06:31:59;;;;;;;6.22;4.32;;;;;;;;;;5016319;28;20049;-68
2024/01/29 06:34:25;;;;;;;5.18;3.70;;;;;;;;;;5015819;28;20124;-67
2024/01/29 06:36:54;;;;;;;3.67;3.25;;;;;;;;;;5014094;28;20053;-67
2024/01/29 06:39:20;;;;;;;5.65;3.70;;;;;;;;;;5013186;28;20128;-67
2024/01/29 06:41:46;;;;;;;3.92;3.60;;;;;;;;;;5014848;28;20600;-67
2024/01/29 06:44:12;;;;;;;4.00;3.63;;;;;;;;;;5016713;28;20033;-67
2024/01/29 06:46:38;;;;;;;5.05;3.72;;;;;;;;;;5015204;28;20559;-66
2024/01/29 06:49:06;;;;;;;3.88;3.20;;;;;;;;;;5014159;28;20045;-66
2024/01/29 06:51:32;;;;;;;5.13;3.58;;;;;;;;;;5012852;28;20042;-67
2024/01/29 06:54:00;;;;;;;3.95;3.25;;;;;;;;;;5013508;28;20041;-67
2024/01/29 06:56:26;;;;;;;4.00;3.22;;;;;;;;;;5015864;28;20049;-67
2024/01/29 06:58:52;;;;;;;4.20;3.20;;;;;;;;;;5014582;28;20049;-67
2024/01/29 07:01:20;;;;;;;4.05;3.28;;;;;;;;;;5014782;28;20069;-67
2024/01/29 07:03:46;;;;;;;4.63;3.60;;;;;;;;;;5023366;28;20084;-66
2024/01/29 07:06:12;;;;;;;5.47;4.10;;;;;;;;;;5022125;28;20188;-67
2024/01/29 07:08:38;;;;;;;5.10;4.05;;;;;;;;;;5015444;28;20115;-67
2024/01/29 07:11:04;;;;;;;3.33;2.95;;;;;;;;;;5016730;28;20571;-67
2024/01/29 07:13:31;;;;;;;3.70;3.28;;;;;;;;;;5014038;28;20049;-68
2024/01/29 07:15:58;;;;;;;2.97;2.67;;;;;;;;;;5016850;28;20527;-67
2024/01/29 07:18:24;;;;;;;3.45;3.15;;;;;;;;;;5013444;28;20496;-67
2024/01/29 07:20:50;;;;;;;2.90;2.58;;;;;;;;;;5011259;28;20045;-67
2024/01/29 07:23:16;;;;;;;3.22;2.92;;;;;;;;;;5012052;28;20046;-67
2024/01/29 07:25:42;;;;;;;4.75;2.90;;;;;;;;;;5013821;28;20468;-67
2024/01/29 07:28:08;;;;;;;3.60;3.28;;;;;;;;;;5014389;28;20539;-68
2024/01/29 07:30:34;;;;;;;4.78;3.88;;;;;;;;;;5013222;28;20172;-67
2024/01/29 07:33:02;;;;;;;3.75;3.38;;;;;;;;;;5012767;28;20092;-67
2024/01/29 07:35:28;;;;;;;4.90;4.45;;;;;;;;;;5012925;28;20050;-67
2024/01/29 07:37:54;;;;;;;4.30;3.90;;;;;;;;;;5015793;28;20512;-67
2024/01/29 07:40:20;;;;;;;5.30;4.45;;;;;;;;;;5014976;28;20038;-67
2024/01/29 07:42:47;;;;;;;4.85;4.32;;;;;;;;;;5012623;28;20573;-67
2024/01/29 07:45:13;;;;;;;6.28;4.50;;;;;;;;;;5019506;28;20073;-67
2024/01/29 07:47:40;;;;;;;5.25;3.85;;;;;;;;;;5019366;28;20060;-67
2024/01/29 07:50:06;;;;;;;4.03;3.63;;;;;;;;;;5019504;28;20697;-67
2024/01/29 07:52:32;;;;;;;5.13;4.20;;;;;;;;;;5015312;28;20107;-67
2024/01/29 07:54:58;;;;;;;4.63;4.15;;;;;;;;;;5013282;28;20053;-67
2024/01/29 07:57:25;;;;;;;4.28;3.45;;;;;;;;;;5011525;28;20038;-67
2024/01/29 07:59:50;;;;;;;4.10;3.70;;;;;;;;;;5013093;28;20049;-67
2024/01/29 08:02:16;;;;;;;5.35;4.22;;;;;;;;;;5019688;28;20061;-66
2024/01/29 08:04:42;;;;;;;5.88;4.53;;;;;;;;;;5016779;28;20454;-67
2024/01/29 08:07:08;;;;;;;5.63;4.22;;;;;;;;;;5013540;28;20108;-66
2024/01/29 08:09:34;;;;;;;4.32;3.92;;;;;;;;;;5013937;28;20053;-66
2024/01/29 08:12:00;;;;;;;4.55;3.95;;;;;;;;;;5015859;28;20042;-67
2024/01/29 08:14:26;;;;;;;4.95;4.32;;;;;;;;;;5012698;28;20053;-67
2024/01/29 08:16:52;;;;;;;6.10;4.93;;;;;;;;;;5018129;28;20132;-67
2024/01/29 08:19:18;;;;;;;4.07;3.67;;;;;;;;;;5026530;28;20128;-68
2024/01/29 08:21:45;;;;;;;4.40;4.00;;;;;;;;;;5018077;28;20127;-67
2024/01/29 08:24:11;;;;;;;4.50;4.03;;;;;;;;;;5017594;28;20062;-67
2024/01/29 08:26:37;;;;;;;6.03;4.53;;;;;;;;;;5016054;28;20061;-68
2024/01/29 08:29:03;;;;;;;5.25;4.22;;;;;;;;;;5013764;28;20033;-68
2024/01/29 08:31:30;;;;;;;4.78;3.60;;;;;;;;;;5015314;28;20129;-68
2024/01/29 08:33:56;;;;;;;4.05;3.65;;;;;;;;;;5018721;28;20057;-68
2024/01/29 08:36:22;;;;;;;4.85;4.20;;;;;;;;;;5019834;28;20128;-67
2024/01/29 08:38:48;;;;;;;5.22;4.68;;;;;;;;;;5015252;28;20124;-68
2024/01/29 08:41:15;;;;;;;4.43;4.03;;;;;;;;;;5016427;28;20054;-68
2024/01/29 08:43:41;;;;;;;6.65;5.22;;;;;;;;;;5023805;28;20057;-68
2024/01/29 08:46:07;;;;;;;5.40;4.35;;;;;;;;;;5019413;28;20147;-68
2024/01/29 08:48:33;;;;;;;4.18;3.58;;;;;;;;;;5019577;28;20061;-68
2024/01/29 08:50:59;;;;;;;4.68;4.10;;;;;;;;;;5026994;28;20053;-68
2024/01/29 08:53:25;;;;;;;5.15;4.13;;;;;;;;;;5028049;28;20106;-68
2024/01/29 08:55:52;;;;;;;4.97;4.05;;;;;;;;;;5024786;28;20053;-69
2024/01/29 08:58:19;;;;;;;4.30;3.90;;;;;;;;;;5014237;28;20038;-69
2024/01/29 09:00:45;;;;;;;4.05;3.65;;;;;;;;;;5014279;28;20057;-70
2024/01/29 09:03:11;;;;;;;3.75;3.40;;;;;;;;;;5017416;28;20386;-70
2024/01/29 09:05:38;;;;;;;4.30;3.90;;;;;;;;;;5016164;28;20065;-70
2024/01/29 09:08:05;;;;;;;4.28;3.30;;;;;;;;;;5017791;28;20053;-68
2024/01/29 09:10:31;;;;;;;5.43;3.85;;;;;;;;;;5015798;28;20053;-80
2024/01/29 09:12:57;;;;;;;3.92;3.63;;;;;;;;;;5014802;28;20045;-76
2024/01/29 09:15:23;;;;;;;5.00;4.05;;;;;;;;;;5016595;28;20058;-70
2024/01/29 09:17:49;;;;;;;3.85;3.45;;;;;;;;;;5020830;28;20045;-70
2024/01/29 09:20:16;;;;;;;4.97;4.28;;;;;;;;;;5015306;28;20085;-70
2024/01/29 09:22:42;;;;;;;4.35;3.88;;;;;;;;;;5020806;28;20054;-72
2024/01/29 09:25:08;;;;;;;4.45;3.83;;;;;;;;;;5020280;28;20053;-71
2024/01/29 09:27:35;;;;;;;4.03;3.63;;;;;;;;;;5022579;28;20062;-71
2024/01/29 09:30:01;;;;;;;4.10;3.70;;;;;;;;;;5019876;28;20041;-72
2024/01/29 09:32:27;;;;;;;5.45;3.83;;;;;;;;;;5022638;28;20045;-70
2024/01/29 09:34:53;;;;;;;3.88;3.55;;;;;;;;;;5015740;28;20400;-71
2024/01/29 09:37:20;;;;;;;4.40;4.00;;;;;;;;;;5021714;28;20142;-71
2024/01/29 09:39:46;;;;;;;4.13;3.72;;;;;;;;;;5024961;28;20049;-70
2024/01/29 09:42:18;;;;;;;4.85;4.35;;;;;;;;;;5018719;28;20075;-71
2024/01/29 09:44:44;;;;;;;;;;;;;;;;;;5021211;28;20045;-70
2024/01/29 09:47:11;;;;;;;5.75;4.95;;;;;;;;;;5020536;28;19921;-70
2024/01/29 09:49:38;;;;;;;6.53;5.35;;;;;;;;;;5022344;28;20057;-69
2024/01/29 09:52:04;;;;;;;9.23;5.95;;;;;;;;;;5018988;28;20045;-70
2024/01/29 09:54:34;;;;;;;8.05;6.30;;;;;;;;;;5020714;28;20050;-68
2024/01/29 09:57:00;;;;;;;7.95;6.45;;;;;;;;;;5021867;28;20125;-69
2024/01/29 09:59:26;;;;;;;7.53;6.40;;;;;;;;;;5019989;28;20053;-69
2024/01/29 10:01:52;;;;;;;8.32;6.97;;;;;;;;;;5018739;28;20481;-68
2024/01/29 10:04:21;;;;;;;7.20;5.80;;;;;;;;;;5023069;28;20060;-69
2024/01/29 10:06:47;;;;;;;7.43;6.07;;;;;;;;;;5015909;28;20771;-71
2024/01/29 10:09:14;;;;;;;6.18;5.55;;;;;;;;;;5013642;28;20050;-70
2024/01/29 10:11:43;;;;;;;6.85;6.20;;;;;;;;;;5016135;28;20053;-68
2024/01/29 10:14:09;;;;;;;8.55;6.28;;;;;;;;;;5024333;28;20488;-67
2024/01/29 10:16:35;;;;;;;6.32;5.68;;;;;;;;;;5021777;28;20045;-70
2024/01/29 10:19:02;;;;;;;7.57;6.50;;;;;;;;;;5020385;28;20661;-69
2024/01/29 10:21:32;;;;;;;9.55;6.72;;;;;;;;;;5018181;28;20069;-69
2024/01/29 10:23:58;;;;;;;8.48;6.47;;;;;;;;;;5021170;28;20049;-70
2024/01/29 10:26:25;;;;;;;8.27;6.15;;;;;;;;;;5021272;28;20056;-70
2024/01/29 10:29:04;;;;;;;6.82;5.65;;;;;;;;;;5022495;28;20586;-70
2024/01/29 10:31:31;;;;;;;6.60;5.90;;;;;;;;;;5016905;28;20583;-70
2024/01/29 10:33:58;;;;;;;7.30;5.50;;;;;;;;;;5015672;28;20053;-70
2024/01/29 10:36:24;;;;;;;7.13;6.25;;;;;;;;;;5019099;28;20184;-70
2024/01/29 10:38:51;;;;;;;6.95;5.90;;;;;;;;;;5016024;28;20527;-69
2024/01/29 10:41:17;;;;;;;8.07;6.75;;;;;;;;;;5018788;28;20045;-68
2024/01/29 10:43:50;;;;;;;7.53;6.80;;;;;;;;;;5018713;28;20069;-70
2024/01/29 10:46:19;;;;;;;8.13;7.15;;;;;;;;;;5023342;28;20041;-70
2024/01/29 10:48:45;;;;;;;9.25;6.97;;;;;;;;;;5022180;28;20053;-71
2024/01/29 10:51:13;;;;;;;6.97;6.28;;;;;;;;;;5019102;28;20072;-70
2024/01/29 10:53:40;;;;;;;8.63;6.72;;;;;;;;;;5016922;28;20492;-73
2024/01/29 10:56:07;;;;;;;10.40;7.93;;;;;;;;;;5023417;28;20049;-72
2024/01/29 10:58:33;;;;;;;8.15;6.95;;;;;;;;;;5023265;28;20057;-73
2024/01/29 11:00:59;;;;;;;11.85;7.43;;;;;;;;;;5015927;28;20037;-75
2024/01/29 11:03:26;;;;;;;8.60;5.70;;;;;;;;;;5016100;28;20045;-71
2024/01/29 11:05:57;;;;;;;11.25;8.50;;;;;;;;;;5019923;28;20081;-72
2024/01/29 11:08:26;;;;;;;12.02;8.30;;;;;;;;;;5019099;28;20049;-71
2024/01/29 11:10:52;;;;;;;10.95;7.68;;;;;;;;;;5018114;28;20301;-71
2024/01/29 11:13:19;;;;;;;8.90;7.57;;;;;;;;;;5018893;28;20124;-71
2024/01/29 11:15:45;;;;;;;10.32;8.02;;;;;;;;;;5013513;28;20051;-72
2024/01/29 11:18:11;;;;;;;14.55;9.32;;;;;;;;;;5019851;28;20041;-71
2024/01/29 11:20:40;;;;;;;12.65;8.13;;;;;;;;;;5019178;28;20136;-71
2024/01/29 11:23:09;;;;;;;11.18;8.70;;;;;;;;;;5019093;28;20073;-73
2024/01/29 11:25:37;;;;;;;10.70;8.85;;;;;;;;;;5017965;28;20061;-70
2024/01/29 11:28:03;;;;;;;12.38;8.13;;;;;;;;;;5017335;28;20044;-71
2024/01/29 11:30:29;;;;;;;10.35;8.07;;;;;;;;;;5017564;28;20045;-70
2024/01/29 11:32:56;;;;;;;12.13;8.85;;;;;;;;;;5013247;28;20041;-70
2024/01/29 11:35:23;;;;;;;13.63;9.50;;;;;;;;;;5016048;28;20473;-66
2024/01/29 11:37:53;;;;;;;11.70;8.60;;;;;;;;;;5014868;28;20053;-69
2024/01/29 11:40:35;;;;;;;11.25;8.10;;;;;;;;;;5014584;28;20041;-70
2024/01/29 11:43:10;;;;;;;11.88;9.25;;;;;;;;;;5014345;28;20049;-70
2024/01/29 11:45:36;;;;;;;14.95;9.73;;;;;;;;;;5005570;28;20405;-69
2024/01/29 11:48:02;;;;;;;14.02;9.38;;;;;;;;;;5012993;28;20037;-71
2024/01/29 11:50:28;;;;;;;12.18;9.75;;;;;;;;;;5015231;28;20064;-70
2024/01/29 11:52:54;;;;;;;13.88;10.65;;;;;;;;;;5016826;28;20060;-70
2024/01/29 11:55:23;;;;;;;13.95;9.95;;;;;;;;;;5016561;28;20038;-70
2024/01/29 11:57:53;;;;;;;12.05;9.57;;;;;;;;;;5017094;28;20050;-70
2024/01/29 12:00:19;;;;;;;16.38;11.30;;;;;;;;;;5019400;28;20045;-72
2024/01/29 12:02:48;;;;;;;19.27;12.23;;;;;;;;;;5019640;28;20058;-70
2024/01/29 12:05:14;;;;;;;17.00;10.80;;;;;;;;;;5016737;28;20084;-70
2024/01/29 12:07:40;;;;;;;14.25;9.65;;;;;;;;;;5016893;28;20089;-71
2024/01/29 12:10:07;;;;;;;16.88;10.73;;;;;;;;;;5016106;28;20085;-71
2024/01/29 12:12:33;;;;;;;12.82;8.77;;;;;;;;;;5020336;28;20503;-71
2024/01/29 12:14:59;;;;;;;13.18;8.48;;;;;;;;;;5018532;28;20045;-70
2024/01/29 12:17:25;;;;;;;11.50;8.30;;;;;;;;;;5016673;28;20057;-70
2024/01/29 12:19:51;;;;;;;12.32;8.75;;;;;;;;;;5015352;28;20061;-70
2024/01/29 12:22:18;;;;;;;12.13;7.70;;;;;;;;;;5016408;28;20405;-69
2024/01/29 12:24:45;;;;;;;12.60;8.73;;;;;;;;;;5019693;28;20049;-70
2024/01/29 12:27:12;;;;;;;12.73;7.72;;;;;;;;;;5018643;28;20064;-70
2024/01/29 12:29:38;;;;;;;13.77;8.10;;;;;;;;;;5016062;28;20132;-70
2024/01/29 12:32:09;;;;;;;10.30;6.63;;;;;;;;;;5015371;28;20052;-70
2024/01/29 12:34:43;;;;;;;8.98;6.70;;;;;;;;;;5017616;28;20049;-70
2024/01/29 12:37:17;;;;;;;13.32;7.82;;;;;;;;;;5017692;28;20118;-70
2024/01/29 12:39:43;;;;;;;12.50;7.88;;;;;;;;;;5016543;28;20046;-70
2024/01/29 12:42:16;;;;;;;9.85;7.32;;;;;;;;;;5016622;28;20038;-70
2024/01/29 12:44:42;;;;;;;13.18;7.68;;;;;;;;;;5015288;28;20053;-70
2024/01/29 12:47:34;;;;;;;10.60;6.68;;;;;;;;;;5018237;28;20385;-69
2024/01/29 12:50:00;;;;;;;10.32;6.80;;;;;;;;;;5014228;28;20142;-69
2024/01/29 12:52:28;;;;;;;10.80;6.45;;;;;;;;;;5016473;28;20422;-70
2024/01/29 12:54:57;;;;;;;9.63;6.60;;;;;;;;;;5015646;28;20072;-71
2024/01/29 12:57:23;;;;;;;9.95;6.68;;;;;;;;;;5018835;28;20056;-70
2024/01/29 12:59:49;;;;;;;16.85;8.18;;;;;;;;;;5019463;28;20053;-70
2024/01/29 13:02:16;;;;;;;10.48;6.63;;;;;;;;;;5015554;28;20408;-69
2024/01/29 13:04:42;;;;;;;13.85;9.15;;;;;;;;;;5014435;28;20077;-70
2024/01/29 13:07:08;;;;;;;17.33;9.90;;;;;;;;;;5017382;28;20057;-69
2024/01/29 13:09:34;;;;;;;13.73;8.18;;;;;;;;;;5017746;28;20620;-70
2024/01/29 13:12:00;;;;;;;15.18;7.97;;;;;;;;;;5019043;28;20085;-69
2024/01/29 13:14:29;;;;;;;10.80;6.78;;;;;;;;;;5018292;28;20765;-69
2024/01/29 13:16:55;;;;;;;9.88;6.63;;;;;;;;;;5016730;28;20053;-69
2024/01/29 13:19:21;;;;;;;11.48;7.47;;;;;;;;;;5022847;28;20130;-69
2024/01/29 13:21:48;;;;;;;12.32;7.28;;;;;;;;;;5021020;28;20080;-69
2024/01/29 13:24:14;;;;;;;15.93;8.00;;;;;;;;;;5013864;28;20084;-70
2024/01/29 13:26:43;;;;;;;11.60;8.13;;;;;;;;;;5017961;28;20050;-70
2024/01/29 13:29:09;;;;;;;11.82;7.35;;;;;;;;;;5018351;28;20042;-70
2024/01/29 13:31:36;;;;;;;13.80;8.27;;;;;;;;;;5016136;28;20041;-70
2024/01/29 13:34:02;;;;;;;15.90;7.95;;;;;;;;;;5014628;28;20042;-69
2024/01/29 13:36:28;;;;;;;13.13;7.65;;;;;;;;;;5014009;28;20081;-69
2024/01/29 13:38:54;;;;;;;9.18;5.50;;;;;;;;;;5016988;28;20100;-69
2024/01/29 13:41:21;;;;;;;10.75;6.40;;;;;;;;;;5017479;28;20117;-69
2024/01/29 13:43:47;;;;;;;9.43;5.70;;;;;;;;;;5015340;28;20057;-69
2024/01/29 13:46:17;;;;;;;6.57;5.32;;;;;;;;;;5013390;28;20084;-70
2024/01/29 13:48:43;;;;;;;8.02;5.32;;;;;;;;;;5015517;28;20462;-70
2024/01/29 13:51:09;;;;;;;10.55;7.10;;;;;;;;;;5016879;28;20075;-69
2024/01/29 13:53:37;;;;;;;11.95;8.32;;;;;;;;;;5016287;28;20081;-69
2024/01/29 13:56:03;;;;;;;15.88;8.50;;;;;;;;;;5015809;28;20045;-70
2024/01/29 13:58:30;;;;;;;11.55;7.40;;;;;;;;;;5013805;28;20038;-69
2024/01/29 14:00:56;;;;;;;13.25;9.25;;;;;;;;;;5013345;28;20057;-69
2024/01/29 14:03:22;;;;;;;14.15;8.73;;;;;;;;;;5018103;28;20042;-70
2024/01/29 14:05:48;;;;;;;9.85;7.43;;;;;;;;;;5016357;28;20572;-69
2024/01/29 14:08:14;;;;;;;14.43;7.93;;;;;;;;;;5014369;28;20057;-69
2024/01/29 14:10:40;;;;;;;9.57;6.30;;;;;;;;;;5014905;28;20050;-70
2024/01/29 14:13:06;;;;;;;14.32;7.30;;;;;;;;;;5014357;28;20103;-68
2024/01/29 14:15:32;;;;;;;15.30;8.25;;;;;;;;;;5016578;28;20557;-69
2024/01/29 14:17:58;;;;;;;12.10;7.88;;;;;;;;;;5018125;28;20049;-69
2024/01/29 14:20:24;;;;;;;11.05;7.47;;;;;;;;;;5016074;28;20053;-69
2024/01/29 14:22:55;;;;;;;11.32;7.40;;;;;;;;;;5014207;28;20420;-70
2024/01/29 14:25:22;;;;;;;10.68;7.30;;;;;;;;;;5014674;28;20065;-70
2024/01/29 14:27:48;;;;;;;10.52;6.75;;;;;;;;;;5015955;28;20053;-69
2024/01/29 14:30:14;;;;;;;6.82;5.25;;;;;;;;;;5016812;28;20403;-70
2024/01/29 14:32:40;;;;;;;8.65;5.55;;;;;;;;;;5015268;28;20045;-69
2024/01/29 14:35:08;;;;;;;7.32;5.30;;;;;;;;;;5012870;28;20543;-69
2024/01/29 14:37:34;;;;;;;6.72;5.07;;;;;;;;;;5012787;28;20050;-71